createdAt,value
2023-03-21T00:00:59.471Z,52.33
2023-03-21T00:03:28.936Z,47.00
2023-03-21T00:05:58.261Z,51.00
2023-03-21T00:08:27.851Z,46.67
2023-03-21T00:11:00.889Z,46.00
2023-03-21T00:13:38.544Z,48.00
2023-03-21T00:16:20.764Z,51.00
2023-03-21T00:18:58.718Z,48.00
2023-03-21T00:24:24.168Z,49.00
2023-03-21T00:26:53.916Z,45.33
2023-03-21T00:29:22.785Z,46.00
2023-03-21T00:31:51.454Z,43.50
2023-03-21T00:34:27.093Z,46.50
2023-03-21T00:37:07.459Z,44.00
2023-03-21T00:39:36.891Z,44.00
2023-03-21T00:42:05.877Z,44.00
2023-03-21T00:44:37.069Z,45.00
2023-03-21T00:47:08.251Z,45.00
2023-03-21T00:49:38.648Z,45.00
2023-03-21T00:52:27.360Z,44.67
2023-03-21T00:54:59.765Z,42.00
2023-03-21T00:57:38.550Z,42.50
2023-03-21T01:00:14.844Z,44.50
2023-03-21T01:03:14.148Z,45.50
2023-03-21T01:06:05.116Z,43.00
2023-03-21T01:08:51.285Z,43.50
2023-03-21T01:11:28.744Z,43.50
2023-03-21T01:14:10.815Z,44.00
2023-03-21T01:16:40.245Z,40.50
2023-03-21T01:19:24.961Z,39.00
2023-03-21T01:21:57.969Z,37.50
2023-03-21T01:24:26.751Z,40.50
2023-03-21T01:26:56.249Z,43.00
2023-03-21T01:29:24.933Z,41.00
2023-03-21T01:31:53.672Z,40.00
2023-03-21T01:34:23.037Z,36.00
2023-03-21T01:36:52.209Z,38.50
2023-03-21T01:39:21.716Z,36.00
2023-03-21T01:41:50.461Z,37.33
2023-03-21T01:44:20.514Z,39.00
2023-03-21T01:47:07.766Z,37.33
2023-03-21T01:49:46.512Z,40.00
2023-03-21T01:52:35.947Z,40.00
2023-03-21T01:55:12.593Z,39.33
2023-03-21T01:58:04.403Z,36.67
2023-03-21T02:00:36.645Z,35.50
2023-03-21T02:03:16.996Z,40.00
2023-03-21T02:06:12.883Z,36.00
2023-03-21T02:08:45.540Z,40.00
2023-03-21T02:11:14.405Z,39.50
2023-03-21T02:13:43.895Z,43.00
2023-03-21T02:16:30.301Z,40.50
2023-03-21T02:19:29.619Z,42.00
2023-03-21T02:22:49.252Z,39.67
2023-03-21T02:26:00.062Z,42.33
2023-03-21T02:28:56.562Z,37.00
2023-03-21T02:32:22.600Z,40.33
2023-03-21T02:35:37.112Z,38.67
2023-03-21T02:38:36.495Z,39.50
2023-03-21T02:41:20.384Z,37.50
2023-03-21T02:44:09.278Z,40.00
2023-03-21T02:47:20.780Z,39.00
2023-03-21T02:49:58.529Z,41.00
2023-03-21T02:52:39.100Z,43.67
2023-03-21T02:55:19.096Z,49.33
2023-03-21T02:57:53.242Z,47.00
2023-03-21T03:00:28.470Z,47.00
2023-03-21T03:03:08.713Z,43.00
2023-03-21T03:06:19.074Z,42.67
2023-03-21T03:09:19.085Z,40.50
2023-03-21T03:12:03.156Z,41.00
2023-03-21T03:15:13.806Z,40.67
2023-03-21T03:18:07.942Z,41.50
2023-03-21T03:21:15.958Z,40.00
2023-03-21T03:24:09.671Z,41.00
2023-03-21T03:27:20.268Z,43.00
2023-03-21T03:29:51.897Z,42.00
2023-03-21T03:32:36.847Z,39.00
2023-03-21T03:35:07.671Z,42.67
2023-03-21T03:37:37.997Z,41.50
2023-03-21T03:40:29.158Z,39.50
2023-03-21T03:43:06.335Z,42.00
2023-03-21T03:45:48.374Z,41.00
2023-03-21T03:48:31.397Z,40.00
2023-03-21T03:51:56.341Z,36.33
2023-03-21T03:54:43.058Z,39.00
2023-03-21T03:57:14.004Z,33.00
2023-03-21T03:59:45.930Z,35.00
2023-03-21T04:02:17.397Z,40.00
2023-03-21T04:04:47.201Z,38.50
2023-03-21T04:07:16.197Z,38.50
2023-03-21T04:09:45.625Z,37.50
2023-03-21T04:12:15.535Z,37.67
2023-03-21T04:14:46.049Z,37.33
2023-03-21T04:17:17.338Z,38.33
2023-03-21T04:19:46.803Z,37.00
2023-03-21T04:22:17.284Z,38.00
2023-03-21T04:24:47.253Z,38.00
2023-03-21T04:27:15.993Z,39.50
2023-03-21T04:29:45.752Z,37.00
2023-03-21T04:32:19.930Z,37.67
2023-03-21T04:34:54.301Z,38.33
2023-03-21T04:37:23.940Z,40.00
2023-03-21T04:39:52.537Z,37.50
2023-03-21T04:42:22.022Z,35.67
2023-03-21T04:44:51.082Z,36.33
2023-03-21T04:47:20.607Z,39.50
2023-03-21T04:49:50.084Z,34.67
2023-03-21T04:52:18.754Z,34.33
2023-03-21T04:54:47.379Z,36.50
2023-03-21T04:57:16.039Z,35.33
2023-03-21T04:59:44.717Z,34.00
2023-03-21T05:02:15.041Z,36.00
2023-03-21T05:04:43.925Z,32.33
2023-03-21T05:07:13.394Z,34.67
2023-03-21T05:09:42.085Z,33.50
2023-03-21T05:12:10.858Z,35.67
2023-03-21T05:14:39.497Z,33.50
2023-03-21T05:17:10.703Z,31.33
2023-03-21T05:19:40.790Z,34.00
2023-03-21T05:22:12.150Z,34.33
2023-03-21T05:24:42.080Z,31.67
2023-03-21T05:27:10.877Z,34.00
2023-03-21T05:29:40.488Z,34.33
2023-03-21T05:32:09.094Z,29.00
2023-03-21T05:34:38.547Z,32.33
2023-03-21T05:37:07.174Z,33.67
2023-03-21T05:39:36.734Z,32.33
2023-03-21T05:42:05.461Z,32.00
2023-03-21T05:44:34.125Z,32.00
2023-03-21T05:47:04.953Z,35.50
2023-03-21T05:49:34.449Z,44.00
2023-03-21T05:52:04.410Z,43.33
2023-03-21T05:54:33.188Z,31.00
2023-03-21T05:57:04.555Z,43.00
2023-03-21T05:59:33.652Z,36.50
2023-03-21T06:02:02.398Z,33.67
2023-03-21T06:04:32.770Z,33.00
2023-03-21T06:07:01.457Z,30.33
2023-03-21T06:09:31.188Z,27.00
2023-03-21T06:11:59.836Z,32.00
2023-03-21T06:14:28.737Z,33.00
2023-03-21T06:16:57.437Z,31.33
2023-03-21T06:19:27.333Z,33.00
2023-03-21T06:21:56.745Z,28.33
2023-03-21T06:24:26.697Z,28.33
2023-03-21T06:26:56.221Z,23.33
2023-03-21T06:29:24.862Z,24.67
2023-03-21T06:31:53.473Z,23.67
2023-03-21T06:34:22.209Z,27.00
2023-03-21T06:36:52.259Z,22.67
2023-03-21T06:39:21.644Z,27.00
2023-03-21T06:41:50.502Z,25.33
2023-03-21T06:44:19.056Z,20.00
2023-03-21T06:46:47.687Z,28.67
2023-03-21T06:49:16.516Z,24.67
2023-03-21T06:51:45.421Z,22.00
2023-03-21T06:54:14.840Z,22.00
2023-03-21T06:56:43.421Z,23.00
2023-03-21T06:59:12.286Z,23.67
2023-03-21T07:01:41.065Z,23.00
2023-03-21T07:04:11.214Z,21.00
2023-03-21T07:06:40.015Z,24.00
2023-03-21T07:09:08.823Z,18.50
2023-03-21T07:11:38.091Z,24.67
2023-03-21T07:14:06.967Z,24.33
2023-03-21T07:16:34.738Z,18.50
2023-03-21T07:19:03.381Z,23.00
2023-03-21T07:21:32.525Z,21.33
2023-03-21T07:24:01.281Z,22.67
2023-03-21T07:26:29.919Z,21.67
2023-03-21T07:28:58.544Z,21.00
2023-03-21T07:31:27.260Z,16.00
2023-03-21T07:33:55.764Z,17.33
2023-03-21T07:36:24.616Z,21.67
2023-03-21T07:38:53.205Z,22.00
2023-03-21T07:41:22.120Z,22.00
2023-03-21T07:43:50.731Z,20.33
2023-03-21T07:46:19.417Z,15.00
2023-03-21T07:48:48.474Z,23.33
2023-03-21T07:51:17.155Z,18.00
2023-03-21T07:53:48.728Z,19.33
2023-03-21T07:56:17.520Z,17.50
2023-03-21T07:58:46.245Z,20.00
2023-03-21T08:01:14.961Z,17.50
2023-03-21T08:03:44.351Z,20.67
2023-03-21T08:06:12.990Z,21.33
2023-03-21T08:08:41.664Z,14.50
2023-03-21T08:11:12.929Z,15.00
2023-03-21T08:13:42.079Z,12.33
2023-03-21T08:16:10.842Z,14.00
2023-03-21T08:18:39.388Z,13.00
2023-03-21T08:21:09.626Z,11.00
2023-03-21T08:23:38.244Z,12.00
2023-03-21T08:26:07.777Z,12.33
2023-03-21T08:28:39.510Z,9.00
2023-03-21T08:31:13.005Z,11.00
2023-03-21T08:33:41.684Z,14.67
2023-03-21T08:36:10.907Z,11.00
2023-03-21T08:38:39.752Z,11.67
2023-03-21T08:41:08.248Z,12.00
2023-03-21T08:43:36.753Z,10.67
2023-03-21T08:46:05.532Z,12.00
2023-03-21T08:48:34.160Z,8.00
2023-03-21T08:51:02.743Z,10.00
2023-03-21T08:53:31.383Z,11.33
2023-03-21T08:55:59.473Z,14.50
2023-03-21T08:58:27.510Z,9.50
2023-03-21T09:00:56.587Z,11.00
2023-03-21T09:03:27.467Z,11.33
2023-03-21T09:05:56.484Z,8.67
2023-03-21T09:08:24.976Z,9.33
2023-03-21T09:10:57.371Z,9.00
2023-03-21T09:13:26.846Z,7.00
2023-03-21T09:15:58.533Z,7.40
2023-03-21T09:18:49.593Z,7.20
2023-03-21T09:21:21.187Z,7.75
2023-03-21T09:23:53.069Z,9.00
2023-03-21T09:26:21.610Z,7.00
2023-03-21T09:28:49.893Z,5.00
2023-03-21T09:31:23.710Z,6.40
2023-03-21T09:33:53.453Z,6.50
2023-03-21T09:36:26.412Z,7.00
2023-03-21T09:38:57.197Z,7.00
2023-03-21T09:42:00.933Z,7.00
2023-03-21T09:45:16.691Z,6.60
2023-03-21T09:47:53.568Z,5.40
2023-03-21T09:50:35.544Z,5.20
2023-03-21T09:53:16.717Z,5.80
2023-03-21T09:55:47.257Z,6.00
2023-03-21T09:58:32.815Z,4.00
2023-03-21T10:01:34.688Z,5.50
2023-03-21T10:04:06.778Z,5.00
2023-03-21T10:06:40.724Z,3.00
2023-03-21T10:09:21.646Z,5.00
2023-03-21T10:12:21.604Z,3.00
2023-03-21T10:14:59.653Z,2.00
2023-03-21T10:17:44.322Z,4.80
2023-03-21T10:20:23.008Z,4.40
2023-03-21T10:22:58.823Z,4.00
2023-03-21T10:26:05.470Z,5.00
2023-03-21T10:28:52.518Z,6.00
2023-03-21T10:31:27.148Z,5.40
2023-03-21T10:34:03.867Z,5.40
2023-03-21T10:36:34.739Z,3.80
2023-03-21T10:39:22.566Z,3.20
2023-03-21T10:41:51.275Z,3.00
2023-03-21T10:44:21.618Z,4.60
2023-03-21T10:47:06.372Z,3.80
2023-03-21T10:50:06.373Z,3.80
2023-03-21T10:52:31.293Z,3.60
2023-03-21T10:55:36.280Z,3.80
2023-03-21T10:58:35.489Z,5.20
2023-03-21T11:01:13.097Z,3.00
2023-03-21T11:03:47.008Z,6.00
2023-03-21T11:06:32.106Z,4.60
2023-03-21T11:09:09.754Z,8.67
2023-03-21T11:11:50.877Z,5.00
2023-03-21T11:14:51.238Z,12.00
2023-03-21T11:17:24.829Z,4.67
2023-03-21T11:20:00.918Z,5.00
2023-03-21T11:22:43.637Z,7.00
2023-03-21T11:25:33.255Z,3.00
2023-03-21T11:28:23.088Z,11.33
2023-03-21T11:30:58.662Z,7.00
2023-03-21T11:33:46.697Z,3.00
2023-03-21T11:36:19.143Z,5.00
2023-03-21T11:39:03.419Z,5.00
2023-03-21T11:41:35.317Z,4.20
2023-03-21T11:44:05.076Z,5.00
2023-03-21T11:46:41.574Z,4.00
2023-03-21T11:49:11.836Z,4.00
2023-03-21T11:52:21.839Z,4.00
2023-03-21T11:55:52.994Z,5.00
2023-03-21T11:59:08.048Z,3.67
2023-03-21T12:02:04.253Z,7.00
2023-03-21T12:04:47.044Z,6.00
2023-03-21T12:07:26.566Z,3.00
2023-03-21T12:10:21.576Z,4.67
2023-03-21T12:13:33.151Z,3.20
2023-03-21T12:16:37.630Z,16.67
2023-03-21T12:19:27.560Z,9.00
2023-03-21T12:22:37.037Z,11.00
2023-03-21T12:25:25.723Z,3.00
2023-03-21T12:28:12.764Z,10.00
2023-03-21T12:31:14.257Z,38.67
2023-03-21T12:34:46.801Z,5.00
2023-03-21T12:37:33.949Z,6.00
2023-03-21T12:40:55.605Z,10.40
2023-03-21T12:43:32.284Z,10.67
2023-03-21T12:46:40.611Z,17.00
2023-03-21T12:49:29.572Z,43.50
2023-03-21T12:52:28.569Z,17.33
2023-03-21T12:55:19.474Z,34.00
2023-03-21T12:58:25.486Z,20.00
2023-03-21T13:01:01.689Z,36.00
2023-03-21T13:03:43.944Z,20.00
2023-03-21T13:06:18.365Z,2.00
2023-03-21T13:09:14.862Z,1.00
2023-03-21T13:11:45.782Z,31.67
2023-03-21T13:14:39.637Z,31.33
2023-03-21T13:17:27.769Z,27.67
2023-03-21T13:20:41.976Z,19.33
2023-03-21T13:23:11.999Z,11.00
2023-03-21T13:25:53.167Z,2.00
2023-03-21T13:28:35.420Z,1.00
2023-03-21T13:31:26.537Z,0.00
2023-03-21T13:33:59.894Z,1.67
2023-03-21T13:36:31.851Z,4.00
2023-03-21T13:39:06.073Z,2.40
2023-03-21T13:41:43.145Z,11.00
2023-03-21T13:45:00.862Z,5.00
2023-03-21T13:48:00.723Z,2.00
2023-03-21T13:51:02.158Z,5.20
2023-03-21T13:53:45.900Z,4.00
2023-03-21T13:56:17.220Z,4.00
2023-03-21T13:58:46.717Z,4.60
2023-03-21T14:01:42.524Z,5.00
2023-03-21T14:04:24.150Z,7.60
2023-03-21T14:07:08.647Z,4.00
2023-03-21T14:09:50.803Z,3.80
2023-03-21T14:12:32.568Z,3.00
2023-03-21T14:15:27.789Z,1.33
2023-03-21T14:18:16.085Z,3.67
2023-03-21T14:20:57.036Z,11.00
2023-03-21T14:23:25.827Z,4.00
2023-03-21T14:25:53.723Z,13.00
2023-03-21T14:28:33.263Z,2.00
2023-03-21T14:31:04.646Z,4.20
2023-03-21T14:33:49.615Z,5.00
2023-03-21T14:36:36.061Z,4.40
2023-03-21T14:39:28.977Z,4.00
2023-03-21T14:42:13.759Z,7.00
2023-03-21T14:44:55.416Z,5.00
2023-03-21T14:47:32.244Z,17.50
2023-03-21T14:50:03.398Z,7.00
2023-03-21T14:52:35.651Z,13.50
2023-03-21T14:55:15.766Z,7.00
2023-03-21T14:57:43.668Z,6.00
2023-03-21T15:00:31.017Z,5.00
2023-03-21T15:03:01.327Z,7.80
2023-03-21T15:05:39.657Z,4.00
2023-03-21T15:08:18.100Z,5.00
2023-03-21T15:11:12.067Z,7.20
2023-03-21T15:13:52.682Z,4.50
2023-03-21T15:16:21.040Z,6.00
2023-03-21T15:18:50.506Z,8.00
2023-03-21T15:21:38.495Z,4.00
2023-03-21T15:24:28.522Z,3.50
2023-03-21T15:27:07.437Z,4.50
2023-03-21T15:29:37.176Z,5.00
2023-03-21T15:32:19.921Z,4.00
2023-03-21T15:34:50.621Z,7.00
2023-03-21T15:37:27.790Z,7.40
2023-03-21T15:40:22.554Z,7.33
2023-03-21T15:42:52.800Z,8.80
2023-03-21T15:45:27.702Z,14.00
2023-03-21T15:48:08.256Z,10.00
2023-03-21T15:50:41.165Z,14.00
2023-03-21T15:53:18.268Z,14.00
2023-03-21T15:55:52.081Z,21.67
2023-03-21T15:58:34.794Z,11.67
2023-03-21T16:01:26.569Z,10.00
2023-03-21T16:04:13.384Z,8.00
2023-03-21T16:07:17.379Z,7.40
2023-03-21T16:09:47.485Z,12.00
2023-03-21T16:12:18.769Z,13.00
2023-03-21T16:14:48.913Z,16.67
2023-03-21T16:17:39.640Z,16.00
2023-03-21T16:20:23.791Z,27.67
2023-03-21T16:22:53.606Z,25.33
2023-03-21T16:25:22.762Z,19.67
2023-03-21T16:27:51.583Z,20.00
2023-03-21T16:30:23.810Z,27.00
2023-03-21T16:32:52.436Z,14.00
2023-03-21T16:35:23.480Z,29.00
2023-03-21T16:37:52.299Z,24.33
2023-03-21T16:40:26.475Z,14.00
2023-03-21T16:42:55.477Z,15.00
2023-03-21T16:45:25.115Z,24.00
2023-03-21T16:47:53.757Z,17.50
2023-03-21T16:50:43.059Z,18.00
2023-03-21T16:53:11.769Z,18.00
2023-03-21T16:55:40.493Z,24.33
2023-03-21T16:58:11.653Z,23.67
2023-03-21T17:00:40.536Z,25.00
2023-03-21T17:03:19.263Z,24.67
2023-03-21T17:05:48.979Z,42.33
2023-03-21T17:08:21.997Z,50.00
2023-03-21T17:10:51.485Z,56.50
2023-03-21T17:13:20.965Z,45.25
2023-03-21T17:15:49.552Z,41.67
2023-03-21T17:18:18.270Z,36.33
2023-03-21T17:20:46.935Z,25.67
2023-03-21T17:23:15.708Z,23.50
2023-03-21T17:25:44.280Z,24.33
2023-03-21T17:28:13.740Z,28.00
2023-03-21T17:30:43.568Z,31.67
2023-03-21T17:33:14.890Z,39.33
2023-03-21T17:35:43.662Z,64.00
2023-03-21T17:38:17.744Z,74.25
2023-03-21T17:40:45.512Z,78.50
2023-03-21T17:43:21.118Z,80.50
2023-03-21T17:45:49.076Z,65.50
2023-03-21T17:48:17.960Z,60.67
2023-03-21T17:50:47.643Z,68.75
2023-03-21T17:53:16.455Z,55.33
2023-03-21T17:55:46.833Z,72.50
2023-03-21T17:58:17.846Z,52.33
2023-03-21T18:00:47.403Z,47.00
2023-03-21T18:03:18.388Z,55.00
2023-03-21T18:05:48.893Z,51.33
2023-03-21T18:08:18.428Z,58.67
2023-03-21T18:10:47.935Z,79.25
2023-03-21T18:13:17.589Z,77.75
2023-03-21T18:15:48.348Z,53.00
2023-03-21T18:18:18.406Z,64.25
2023-03-21T18:20:53.733Z,53.33
2023-03-21T18:23:23.953Z,46.00
2023-03-21T18:25:53.649Z,50.00
2023-03-21T18:28:23.034Z,50.33
2023-03-21T18:31:08.186Z,35.67
2023-03-21T18:33:41.195Z,45.33
2023-03-21T18:36:15.538Z,42.33
2023-03-21T18:38:46.167Z,36.33
2023-03-21T18:41:18.950Z,38.00
2023-03-21T18:44:13.582Z,33.67
2023-03-21T18:46:37.833Z,38.33
2023-03-21T18:49:56.101Z,41.67
2023-03-21T18:51:57.823Z,39.50
2023-03-21T18:54:27.839Z,37.00
2023-03-21T18:57:33.829Z,39.00
2023-03-21T18:59:47.809Z,40.00
2023-03-21T19:02:17.311Z,40.33
2023-03-21T19:04:46.769Z,39.33
2023-03-21T19:07:15.657Z,41.00
2023-03-21T19:10:15.368Z,38.00
2023-03-21T19:12:35.335Z,37.33
2023-03-21T19:15:06.340Z,41.00
2023-03-21T19:18:24.849Z,40.00
2023-03-21T19:20:23.929Z,39.00
2023-03-21T19:22:53.639Z,36.00
2023-03-21T19:25:22.329Z,30.67
2023-03-21T19:27:52.315Z,31.00
2023-03-21T19:30:22.078Z,37.00
2023-03-21T19:32:50.799Z,47.00
2023-03-21T19:35:20.440Z,46.33
2023-03-21T19:37:49.887Z,48.00
2023-03-21T19:40:20.047Z,44.33
2023-03-21T19:42:49.483Z,38.67
2023-03-21T19:45:19.200Z,41.67
2023-03-21T19:47:48.690Z,37.00
2023-03-21T19:53:06.736Z,43.50
2023-03-21T19:55:36.582Z,44.67
2023-03-21T19:58:07.236Z,50.33
2023-03-21T20:00:37.745Z,45.00
2023-03-21T20:03:09.003Z,37.33
2023-03-21T20:05:38.785Z,75.33
2023-03-21T20:08:10.993Z,43.00
2023-03-21T20:10:41.641Z,54.33
2023-03-21T20:13:11.215Z,39.67
2023-03-21T20:15:47.768Z,47.33
2023-03-21T20:18:18.776Z,40.67
2023-03-21T20:20:48.426Z,47.50
2023-03-21T20:23:19.452Z,60.33
2023-03-21T20:25:49.690Z,55.33
2023-03-21T20:28:25.513Z,50.67
2023-03-21T20:30:59.522Z,35.00
2023-03-21T20:33:30.350Z,36.00
2023-03-21T20:38:55.529Z,37.33
2023-03-21T20:41:25.009Z,37.33
2023-03-21T20:46:47.724Z,34.33
2023-03-21T20:49:17.261Z,36.67
2023-03-21T20:52:46.233Z,35.67
2023-03-21T20:54:36.654Z,38.33
2023-03-21T20:57:05.814Z,36.33
2023-03-21T20:59:35.332Z,35.33
2023-03-21T21:02:04.272Z,37.67
2023-03-21T21:07:23.391Z,38.00
2023-03-21T21:09:54.680Z,37.33
2023-03-21T21:12:28.716Z,38.33
2023-03-21T21:14:57.466Z,44.50
2023-03-21T21:17:53.992Z,32.50
2023-03-21T21:20:17.145Z,35.67
2023-03-21T21:23:00.459Z,39.00
2023-03-21T21:25:33.085Z,38.00
2023-03-21T21:28:03.866Z,36.33
2023-03-21T21:30:34.193Z,36.67
2023-03-21T21:33:02.887Z,39.00
2023-03-21T21:35:33.704Z,40.67
2023-03-21T21:38:02.741Z,39.00
2023-03-21T21:40:32.268Z,39.67
2023-03-21T21:43:03.649Z,42.00
2023-03-21T21:45:33.679Z,42.33
2023-03-21T21:48:03.296Z,46.33
2023-03-21T21:50:31.991Z,46.00
2023-03-21T21:53:04.398Z,47.33
2023-03-21T21:55:35.174Z,47.33
2023-03-21T21:58:04.841Z,49.00
2023-03-21T22:00:34.673Z,50.33
2023-03-21T22:03:04.499Z,53.00
2023-03-21T22:05:34.053Z,51.67
2023-03-21T22:08:04.301Z,48.00
2023-03-21T22:10:34.154Z,49.00
2023-03-21T22:13:03.706Z,48.00
2023-03-21T22:15:33.487Z,49.67
2023-03-21T22:18:03.944Z,50.00
2023-03-21T22:20:34.139Z,55.00
2023-03-21T22:23:03.907Z,66.33
2023-03-21T22:25:33.456Z,65.75
2023-03-21T22:28:03.257Z,57.00
2023-03-21T22:30:33.994Z,56.33
2023-03-21T22:33:09.541Z,55.67
2023-03-21T22:35:39.536Z,66.67
2023-03-21T22:38:09.143Z,55.33
2023-03-21T22:40:39.000Z,50.67
2023-03-21T22:43:08.932Z,47.33
2023-03-21T22:45:38.480Z,51.67
2023-03-21T22:48:08.075Z,50.00
2023-03-21T22:50:38.190Z,49.33
2023-03-21T22:53:08.065Z,49.00
2023-03-21T22:55:38.478Z,50.00
2023-03-21T22:58:08.016Z,50.00
2023-03-21T23:00:37.781Z,48.67
2023-03-21T23:03:07.394Z,50.67
2023-03-21T23:05:41.788Z,50.33
2023-03-21T23:08:11.872Z,51.00
2023-03-21T23:10:43.956Z,45.00
2023-03-21T23:13:13.580Z,51.33
2023-03-21T23:15:43.140Z,51.67
2023-03-21T23:18:12.003Z,51.50
2023-03-21T23:20:41.994Z,51.67
2023-03-21T23:23:11.830Z,51.00
2023-03-21T23:25:42.547Z,52.00
2023-03-21T23:28:12.161Z,54.00
2023-03-21T23:30:42.033Z,49.67
2023-03-21T23:33:10.971Z,47.00
2023-03-21T23:35:40.524Z,50.67
2023-03-21T23:38:09.999Z,50.00
2023-03-21T23:40:40.539Z,50.00
2023-03-21T23:43:10.538Z,50.33
2023-03-21T23:45:39.991Z,48.00
2023-03-21T23:48:09.583Z,49.67
2023-03-21T23:50:39.544Z,49.00
2023-03-21T23:53:09.109Z,48.00
2023-03-21T23:55:41.224Z,49.00
2023-03-21T23:58:10.931Z,49.00
